sensor_id;sensor_type;location;lat;lon;timestamp;temperature;humidity
22360;DHT22;11347;52.030;4.690;2022-11-12T00:00:36;15.60;66.00
22360;DHT22;11347;52.030;4.690;2022-11-12T00:03:02;15.60;66.00
22360;DHT22;11347;52.030;4.690;2022-11-12T00:05:28;15.60;66.00
22360;DHT22;11347;52.030;4.690;2022-11-12T00:07:53;15.60;66.00
22360;DHT22;11347;52.030;4.690;2022-11-12T00:10:19;15.60;66.00
22360;DHT22;11347;52.030;4.690;2022-11-12T00:12:44;15.70;66.20
22360;DHT22;11347;52.030;4.690;2022-11-12T00:15:10;15.60;66.20
22360;DHT22;11347;52.030;4.690;2022-11-12T00:17:36;15.60;66.10
22360;DHT22;11347;52.030;4.690;2022-11-12T00:20:03;15.60;66.10
22360;DHT22;11347;52.030;4.690;2022-11-12T00:22:28;15.60;66.10
22360;DHT22;11347;52.030;4.690;2022-11-12T00:24:54;15.60;66.20
22360;DHT22;11347;52.030;4.690;2022-11-12T00:27:19;15.60;66.10
22360;DHT22;11347;52.030;4.690;2022-11-12T00:29:45;15.60;66.10
22360;DHT22;11347;52.030;4.690;2022-11-12T00:32:11;15.60;66.10
22360;DHT22;11347;52.030;4.690;2022-11-12T00:34:36;15.60;66.10
22360;DHT22;11347;52.030;4.690;2022-11-12T00:37:02;15.60;66.10
22360;DHT22;11347;52.030;4.690;2022-11-12T00:39:28;15.60;66.10
22360;DHT22;11347;52.030;4.690;2022-11-12T00:41:54;15.60;66.00
22360;DHT22;11347;52.030;4.690;2022-11-12T00:44:20;15.60;66.00
22360;DHT22;11347;52.030;4.690;2022-11-12T00:46:45;15.60;66.00
22360;DHT22;11347;52.030;4.690;2022-11-12T00:49:11;15.60;66.10
22360;DHT22;11347;52.030;4.690;2022-11-12T00:51:37;15.60;66.10
22360;DHT22;11347;52.030;4.690;2022-11-12T00:54:03;15.60;66.00
22360;DHT22;11347;52.030;4.690;2022-11-12T00:56:29;15.60;66.10
22360;DHT22;11347;52.030;4.690;2022-11-12T00:58:54;15.60;66.10
22360;DHT22;11347;52.030;4.690;2022-11-12T01:01:21;15.60;66.10
22360;DHT22;11347;52.030;4.690;2022-11-12T01:03:47;15.70;66.20
22360;DHT22;11347;52.030;4.690;2022-11-12T01:06:17;15.60;66.10
22360;DHT22;11347;52.030;4.690;2022-11-12T01:08:44;15.70;66.20
22360;DHT22;11347;52.030;4.690;2022-11-12T01:11:10;15.60;66.10
22360;DHT22;11347;52.030;4.690;2022-11-12T01:13:37;15.60;66.20
22360;DHT22;11347;52.030;4.690;2022-11-12T01:16:05;15.70;66.30
22360;DHT22;11347;52.030;4.690;2022-11-12T01:18:31;15.70;66.30
22360;DHT22;11347;52.030;4.690;2022-11-12T01:21:01;15.70;66.30
22360;DHT22;11347;52.030;4.690;2022-11-12T01:23:27;15.70;66.40
22360;DHT22;11347;52.030;4.690;2022-11-12T01:25:53;15.70;66.60
22360;DHT22;11347;52.030;4.690;2022-11-12T01:28:19;15.70;66.50
22360;DHT22;11347;52.030;4.690;2022-11-12T01:30:44;15.70;66.50
22360;DHT22;11347;52.030;4.690;2022-11-12T01:33:10;15.70;66.50
22360;DHT22;11347;52.030;4.690;2022-11-12T01:35:35;15.70;66.50
22360;DHT22;11347;52.030;4.690;2022-11-12T01:38:01;15.70;66.50
22360;DHT22;11347;52.030;4.690;2022-11-12T01:40:26;15.70;66.50
22360;DHT22;11347;52.030;4.690;2022-11-12T01:42:52;15.70;66.50
22360;DHT22;11347;52.030;4.690;2022-11-12T01:45:18;15.70;66.30
22360;DHT22;11347;52.030;4.690;2022-11-12T01:47:45;15.70;66.40
22360;DHT22;11347;52.030;4.690;2022-11-12T01:50:24;15.70;66.40
22360;DHT22;11347;52.030;4.690;2022-11-12T01:53:02;15.70;66.40
22360;DHT22;11347;52.030;4.690;2022-11-12T01:55:32;15.80;66.50
22360;DHT22;11347;52.030;4.690;2022-11-12T01:58:04;15.80;66.40
22360;DHT22;11347;52.030;4.690;2022-11-12T02:00:32;15.80;66.50
22360;DHT22;11347;52.030;4.690;2022-11-12T02:02:59;15.80;66.50
22360;DHT22;11347;52.030;4.690;2022-11-12T02:05:28;15.70;66.40
22360;DHT22;11347;52.030;4.690;2022-11-12T02:07:56;15.80;66.50
22360;DHT22;11347;52.030;4.690;2022-11-12T02:10:24;15.70;66.50
22360;DHT22;11347;52.030;4.690;2022-11-12T02:12:51;15.80;66.50
22360;DHT22;11347;52.030;4.690;2022-11-12T02:15:36;15.80;66.50
22360;DHT22;11347;52.030;4.690;2022-11-12T02:18:03;15.80;66.50
22360;DHT22;11347;52.030;4.690;2022-11-12T02:20:33;15.80;66.60
22360;DHT22;11347;52.030;4.690;2022-11-12T02:22:59;15.80;66.60
22360;DHT22;11347;52.030;4.690;2022-11-12T02:25:25;15.80;66.60
22360;DHT22;11347;52.030;4.690;2022-11-12T02:27:53;15.80;66.70
22360;DHT22;11347;52.030;4.690;2022-11-12T02:30:36;15.80;66.70
22360;DHT22;11347;52.030;4.690;2022-11-12T02:33:02;15.80;66.60
22360;DHT22;11347;52.030;4.690;2022-11-12T02:35:28;15.80;66.70
22360;DHT22;11347;52.030;4.690;2022-11-12T02:37:54;15.80;66.60
22360;DHT22;11347;52.030;4.690;2022-11-12T02:40:20;15.80;66.60
22360;DHT22;11347;52.030;4.690;2022-11-12T02:42:45;15.80;66.60
22360;DHT22;11347;52.030;4.690;2022-11-12T02:45:11;15.80;66.70
22360;DHT22;11347;52.030;4.690;2022-11-12T02:47:36;15.80;66.80
22360;DHT22;11347;52.030;4.690;2022-11-12T02:50:03;15.80;66.80
22360;DHT22;11347;52.030;4.690;2022-11-12T02:52:28;15.80;66.80
22360;DHT22;11347;52.030;4.690;2022-11-12T02:54:54;15.80;66.90
22360;DHT22;11347;52.030;4.690;2022-11-12T02:57:19;15.80;66.90
22360;DHT22;11347;52.030;4.690;2022-11-12T02:59:45;15.80;67.00
22360;DHT22;11347;52.030;4.690;2022-11-12T03:02:11;15.80;66.90
22360;DHT22;11347;52.030;4.690;2022-11-12T03:04:36;15.80;66.90
22360;DHT22;11347;52.030;4.690;2022-11-12T03:07:02;15.80;66.90
22360;DHT22;11347;52.030;4.690;2022-11-12T03:09:27;15.80;66.90
22360;DHT22;11347;52.030;4.690;2022-11-12T03:11:53;15.80;66.90
22360;DHT22;11347;52.030;4.690;2022-11-12T03:14:18;15.80;66.90
22360;DHT22;11347;52.030;4.690;2022-11-12T03:16:44;15.80;66.90
22360;DHT22;11347;52.030;4.690;2022-11-12T03:19:09;15.80;67.00
22360;DHT22;11347;52.030;4.690;2022-11-12T03:21:35;15.80;67.00
22360;DHT22;11347;52.030;4.690;2022-11-12T03:24:00;15.80;67.00
22360;DHT22;11347;52.030;4.690;2022-11-12T03:26:26;15.80;67.00
22360;DHT22;11347;52.030;4.690;2022-11-12T03:28:52;15.80;67.00
22360;DHT22;11347;52.030;4.690;2022-11-12T03:31:17;15.80;66.90
22360;DHT22;11347;52.030;4.690;2022-11-12T03:33:43;15.80;67.00
22360;DHT22;11347;52.030;4.690;2022-11-12T03:36:09;15.80;66.90
22360;DHT22;11347;52.030;4.690;2022-11-12T03:38:34;15.80;67.00
22360;DHT22;11347;52.030;4.690;2022-11-12T03:41:00;15.80;67.10
22360;DHT22;11347;52.030;4.690;2022-11-12T03:43:25;15.80;67.00
22360;DHT22;11347;52.030;4.690;2022-11-12T03:45:51;15.80;67.00
22360;DHT22;11347;52.030;4.690;2022-11-12T03:48:16;15.80;67.00
22360;DHT22;11347;52.030;4.690;2022-11-12T03:50:42;15.80;67.00
22360;DHT22;11347;52.030;4.690;2022-11-12T03:53:07;15.80;66.90
22360;DHT22;11347;52.030;4.690;2022-11-12T03:55:33;15.80;67.00
22360;DHT22;11347;52.030;4.690;2022-11-12T03:57:59;15.80;67.10
22360;DHT22;11347;52.030;4.690;2022-11-12T04:00:26;15.80;67.10
22360;DHT22;11347;52.030;4.690;2022-11-12T04:02:52;15.80;67.10
22360;DHT22;11347;52.030;4.690;2022-11-12T04:05:17;15.80;67.10
22360;DHT22;11347;52.030;4.690;2022-11-12T04:08:05;15.80;67.10
22360;DHT22;11347;52.030;4.690;2022-11-12T04:10:50;15.80;67.20
22360;DHT22;11347;52.030;4.690;2022-11-12T04:13:16;15.80;67.20
22360;DHT22;11347;52.030;4.690;2022-11-12T04:16:28;15.80;67.30
22360;DHT22;11347;52.030;4.690;2022-11-12T04:19:06;15.80;67.30
22360;DHT22;11347;52.030;4.690;2022-11-12T04:21:54;15.80;67.20
22360;DHT22;11347;52.030;4.690;2022-11-12T04:29:39;15.80;67.10
22360;DHT22;11347;52.030;4.690;2022-11-12T04:32:23;15.80;67.10
22360;DHT22;11347;52.030;4.690;2022-11-12T04:34:50;15.80;67.00
22360;DHT22;11347;52.030;4.690;2022-11-12T04:37:16;15.80;66.90
22360;DHT22;11347;52.030;4.690;2022-11-12T04:39:41;15.80;67.00
22360;DHT22;11347;52.030;4.690;2022-11-12T04:42:08;15.80;67.00
22360;DHT22;11347;52.030;4.690;2022-11-12T04:44:53;15.80;67.00
22360;DHT22;11347;52.030;4.690;2022-11-12T04:47:26;15.70;66.90
22360;DHT22;11347;52.030;4.690;2022-11-12T04:49:52;15.70;66.90
22360;DHT22;11347;52.030;4.690;2022-11-12T04:52:17;15.70;67.00
22360;DHT22;11347;52.030;4.690;2022-11-12T04:54:43;16.10;67.30
22360;DHT22;11347;52.030;4.690;2022-11-12T04:57:08;15.70;67.00
22360;DHT22;11347;52.030;4.690;2022-11-12T04:59:34;15.70;66.90
22360;DHT22;11347;52.030;4.690;2022-11-12T05:01:59;15.70;67.00
22360;DHT22;11347;52.030;4.690;2022-11-12T05:04:25;15.70;67.00
22360;DHT22;11347;52.030;4.690;2022-11-12T05:06:57;15.70;67.00
22360;DHT22;11347;52.030;4.690;2022-11-12T05:09:25;15.70;66.90
22360;DHT22;11347;52.030;4.690;2022-11-12T05:11:52;15.70;67.00
22360;DHT22;11347;52.030;4.690;2022-11-12T05:14:20;15.70;67.00
22360;DHT22;11347;52.030;4.690;2022-11-12T05:16:45;15.70;66.90
22360;DHT22;11347;52.030;4.690;2022-11-12T05:19:11;15.70;66.90
22360;DHT22;11347;52.030;4.690;2022-11-12T05:21:36;15.70;66.90
22360;DHT22;11347;52.030;4.690;2022-11-12T05:24:21;15.60;66.70
22360;DHT22;11347;52.030;4.690;2022-11-12T05:26:47;15.60;66.70
22360;DHT22;11347;52.030;4.690;2022-11-12T05:29:12;15.60;66.70
22360;DHT22;11347;52.030;4.690;2022-11-12T05:31:38;15.60;66.70
22360;DHT22;11347;52.030;4.690;2022-11-12T05:34:03;15.60;66.70
22360;DHT22;11347;52.030;4.690;2022-11-12T05:36:29;15.60;66.70
22360;DHT22;11347;52.030;4.690;2022-11-12T05:38:54;15.60;66.70
22360;DHT22;11347;52.030;4.690;2022-11-12T05:41:20;15.60;66.70
22360;DHT22;11347;52.030;4.690;2022-11-12T05:43:45;15.60;66.80
22360;DHT22;11347;52.030;4.690;2022-11-12T05:46:11;15.60;66.80
22360;DHT22;11347;52.030;4.690;2022-11-12T05:48:36;15.60;66.80
22360;DHT22;11347;52.030;4.690;2022-11-12T05:51:02;15.60;66.90
22360;DHT22;11347;52.030;4.690;2022-11-12T05:53:28;15.60;66.90
22360;DHT22;11347;52.030;4.690;2022-11-12T05:55:59;15.60;66.80
22360;DHT22;11347;52.030;4.690;2022-11-12T05:58:25;15.60;66.80
22360;DHT22;11347;52.030;4.690;2022-11-12T06:00:50;15.60;66.60
22360;DHT22;11347;52.030;4.690;2022-11-12T06:03:16;15.60;66.60
22360;DHT22;11347;52.030;4.690;2022-11-12T06:05:41;15.60;66.60
22360;DHT22;11347;52.030;4.690;2022-11-12T06:08:07;15.50;66.50
22360;DHT22;11347;52.030;4.690;2022-11-12T06:10:32;15.50;66.50
22360;DHT22;11347;52.030;4.690;2022-11-12T06:12:58;15.50;66.40
22360;DHT22;11347;52.030;4.690;2022-11-12T06:15:23;15.50;66.40
22360;DHT22;11347;52.030;4.690;2022-11-12T06:17:52;15.50;66.40
22360;DHT22;11347;52.030;4.690;2022-11-12T06:20:18;15.50;66.40
22360;DHT22;11347;52.030;4.690;2022-11-12T06:22:43;15.50;66.40
22360;DHT22;11347;52.030;4.690;2022-11-12T06:25:09;15.50;66.40
22360;DHT22;11347;52.030;4.690;2022-11-12T06:27:35;15.50;66.40
22360;DHT22;11347;52.030;4.690;2022-11-12T06:30:00;15.50;66.40
22360;DHT22;11347;52.030;4.690;2022-11-12T06:32:26;15.50;66.40
22360;DHT22;11347;52.030;4.690;2022-11-12T06:34:51;15.40;66.30
22360;DHT22;11347;52.030;4.690;2022-11-12T06:37:18;15.40;66.30
22360;DHT22;11347;52.030;4.690;2022-11-12T06:39:44;15.40;66.30
22360;DHT22;11347;52.030;4.690;2022-11-12T06:42:09;15.40;66.30
22360;DHT22;11347;52.030;4.690;2022-11-12T06:44:35;15.40;66.20
22360;DHT22;11347;52.030;4.690;2022-11-12T06:47:01;15.40;66.20
22360;DHT22;11347;52.030;4.690;2022-11-12T06:49:26;15.40;66.50
22360;DHT22;11347;52.030;4.690;2022-11-12T06:51:52;15.40;66.20
22360;DHT22;11347;52.030;4.690;2022-11-12T06:54:17;15.40;66.10
22360;DHT22;11347;52.030;4.690;2022-11-12T06:56:43;15.40;66.10
22360;DHT22;11347;52.030;4.690;2022-11-12T06:59:09;15.40;66.10
22360;DHT22;11347;52.030;4.690;2022-11-12T07:01:34;15.40;66.10
22360;DHT22;11347;52.030;4.690;2022-11-12T07:04:00;15.40;66.10
22360;DHT22;11347;52.030;4.690;2022-11-12T07:06:25;15.70;66.40
22360;DHT22;11347;52.030;4.690;2022-11-12T07:08:51;15.30;66.20
22360;DHT22;11347;52.030;4.690;2022-11-12T07:11:18;15.30;66.20
22360;DHT22;11347;52.030;4.690;2022-11-12T07:13:44;15.30;66.20
22360;DHT22;11347;52.030;4.690;2022-11-12T07:16:10;15.30;66.30
22360;DHT22;11347;52.030;4.690;2022-11-12T07:18:38;15.30;66.20
22360;DHT22;11347;52.030;4.690;2022-11-12T07:21:05;15.30;66.20
22360;DHT22;11347;52.030;4.690;2022-11-12T07:23:32;15.30;66.20
22360;DHT22;11347;52.030;4.690;2022-11-12T07:26:16;15.30;66.30
22360;DHT22;11347;52.030;4.690;2022-11-12T07:28:42;15.30;66.20
22360;DHT22;11347;52.030;4.690;2022-11-12T07:31:13;15.30;66.20
22360;DHT22;11347;52.030;4.690;2022-11-12T07:33:40;15.30;66.30
22360;DHT22;11347;52.030;4.690;2022-11-12T07:36:17;15.30;66.30
22360;DHT22;11347;52.030;4.690;2022-11-12T07:38:43;15.30;66.20
22360;DHT22;11347;52.030;4.690;2022-11-12T07:41:16;15.30;66.20
22360;DHT22;11347;52.030;4.690;2022-11-12T07:43:44;15.30;66.30
22360;DHT22;11347;52.030;4.690;2022-11-12T07:46:24;15.30;66.50
22360;DHT22;11347;52.030;4.690;2022-11-12T07:48:50;15.30;66.40
22360;DHT22;11347;52.030;4.690;2022-11-12T07:51:18;15.30;66.30
22360;DHT22;11347;52.030;4.690;2022-11-12T07:53:45;15.30;66.20
22360;DHT22;11347;52.030;4.690;2022-11-12T07:56:19;15.30;66.40
22360;DHT22;11347;52.030;4.690;2022-11-12T07:58:45;15.30;66.40
22360;DHT22;11347;52.030;4.690;2022-11-12T08:03:37;15.30;66.60
22360;DHT22;11347;52.030;4.690;2022-11-12T08:06:02;15.30;66.60
22360;DHT22;11347;52.030;4.690;2022-11-12T08:08:28;15.30;66.40
22360;DHT22;11347;52.030;4.690;2022-11-12T08:10:55;15.30;66.30
22360;DHT22;11347;52.030;4.690;2022-11-12T08:13:21;15.30;66.20
22360;DHT22;11347;52.030;4.690;2022-11-12T08:15:46;15.30;66.20
22360;DHT22;11347;52.030;4.690;2022-11-12T08:18:12;15.30;66.20
22360;DHT22;11347;52.030;4.690;2022-11-12T08:20:38;15.30;66.30
22360;DHT22;11347;52.030;4.690;2022-11-12T08:23:04;15.30;66.40
22360;DHT22;11347;52.030;4.690;2022-11-12T08:25:29;15.30;66.50
22360;DHT22;11347;52.030;4.690;2022-11-12T08:27:56;15.30;66.40
22360;DHT22;11347;52.030;4.690;2022-11-12T08:30:22;15.30;66.50
22360;DHT22;11347;52.030;4.690;2022-11-12T08:32:57;15.40;66.50
22360;DHT22;11347;52.030;4.690;2022-11-12T08:35:24;15.40;66.30
22360;DHT22;11347;52.030;4.690;2022-11-12T08:37:51;15.40;66.20
22360;DHT22;11347;52.030;4.690;2022-11-12T08:40:16;15.40;66.30
22360;DHT22;11347;52.030;4.690;2022-11-12T08:42:42;15.40;66.30
22360;DHT22;11347;52.030;4.690;2022-11-12T08:45:08;15.40;66.30
22360;DHT22;11347;52.030;4.690;2022-11-12T08:47:33;15.40;66.30
22360;DHT22;11347;52.030;4.690;2022-11-12T08:49:59;15.40;66.20
22360;DHT22;11347;52.030;4.690;2022-11-12T08:52:24;15.40;66.20
22360;DHT22;11347;52.030;4.690;2022-11-12T08:54:50;15.40;66.30
22360;DHT22;11347;52.030;4.690;2022-11-12T08:57:15;15.50;66.40
22360;DHT22;11347;52.030;4.690;2022-11-12T08:59:41;15.50;66.40
22360;DHT22;11347;52.030;4.690;2022-11-12T09:02:11;15.50;66.00
22360;DHT22;11347;52.030;4.690;2022-11-12T09:04:37;15.50;65.70
22360;DHT22;11347;52.030;4.690;2022-11-12T09:07:03;15.50;66.00
22360;DHT22;11347;52.030;4.690;2022-11-12T09:09:28;15.50;65.30
22360;DHT22;11347;52.030;4.690;2022-11-12T09:11:54;15.50;65.10
22360;DHT22;11347;52.030;4.690;2022-11-12T09:14:19;15.50;65.00
22360;DHT22;11347;52.030;4.690;2022-11-12T09:16:45;15.50;64.90
22360;DHT22;11347;52.030;4.690;2022-11-12T09:19:11;15.60;65.00
22360;DHT22;11347;52.030;4.690;2022-11-12T09:21:36;15.60;64.80
22360;DHT22;11347;52.030;4.690;2022-11-12T09:24:02;15.60;64.90
22360;DHT22;11347;52.030;4.690;2022-11-12T09:26:27;15.60;64.80
22360;DHT22;11347;52.030;4.690;2022-11-12T09:28:53;15.60;64.80
22360;DHT22;11347;52.030;4.690;2022-11-12T09:31:19;15.60;64.80
22360;DHT22;11347;52.030;4.690;2022-11-12T09:33:44;15.60;64.80
22360;DHT22;11347;52.030;4.690;2022-11-12T09:36:10;15.60;64.70
22360;DHT22;11347;52.030;4.690;2022-11-12T09:38:36;15.60;64.80
22360;DHT22;11347;52.030;4.690;2022-11-12T09:41:16;15.60;64.70
22360;DHT22;11347;52.030;4.690;2022-11-12T09:43:56;15.70;64.80
22360;DHT22;11347;52.030;4.690;2022-11-12T09:49:13;15.60;64.70
22360;DHT22;11347;52.030;4.690;2022-11-12T09:52:05;15.70;64.70
22360;DHT22;11347;52.030;4.690;2022-11-12T09:54:36;15.70;64.70
22360;DHT22;11347;52.030;4.690;2022-11-12T09:57:01;15.70;64.70
22360;DHT22;11347;52.030;4.690;2022-11-12T09:59:34;15.70;64.70
22360;DHT22;11347;52.030;4.690;2022-11-12T10:02:34;15.70;64.70
22360;DHT22;11347;52.030;4.690;2022-11-12T10:21:52;15.90;64.80
22360;DHT22;11347;52.030;4.690;2022-11-12T10:24:22;15.90;64.80
22360;DHT22;11347;52.030;4.690;2022-11-12T10:26:49;15.90;64.80
22360;DHT22;11347;52.030;4.690;2022-11-12T10:29:29;15.90;64.70
22360;DHT22;11347;52.030;4.690;2022-11-12T10:32:00;16.40;65.10
22360;DHT22;11347;52.030;4.690;2022-11-12T10:34:28;16.00;64.70
22360;DHT22;11347;52.030;4.690;2022-11-12T10:37:05;16.00;64.70
22360;DHT22;11347;52.030;4.690;2022-11-12T10:39:36;16.00;64.70
22360;DHT22;11347;52.030;4.690;2022-11-12T10:42:10;16.00;64.60
22360;DHT22;11347;52.030;4.690;2022-11-12T10:44:37;16.10;64.60
22360;DHT22;11347;52.030;4.690;2022-11-12T10:50:02;16.10;64.40
22360;DHT22;11347;52.030;4.690;2022-11-12T10:52:28;16.10;64.40
22360;DHT22;11347;52.030;4.690;2022-11-12T10:55:21;16.10;64.50
22360;DHT22;11347;52.030;4.690;2022-11-12T11:00:30;16.20;64.50
22360;DHT22;11347;52.030;4.690;2022-11-12T11:02:57;16.20;64.30
22360;DHT22;11347;52.030;4.690;2022-11-12T11:08:13;16.30;64.30
22360;DHT22;11347;52.030;4.690;2022-11-12T11:10:39;16.30;64.30
22360;DHT22;11347;52.030;4.690;2022-11-12T11:13:18;16.30;64.20
22360;DHT22;11347;52.030;4.690;2022-11-12T11:15:59;16.30;64.00
22360;DHT22;11347;52.030;4.690;2022-11-12T11:18:29;16.30;64.00
22360;DHT22;11347;52.030;4.690;2022-11-12T11:21:24;16.40;64.10
22360;DHT22;11347;52.030;4.690;2022-11-12T11:24:06;16.40;64.10
22360;DHT22;11347;52.030;4.690;2022-11-12T11:32:41;16.50;64.20
22360;DHT22;11347;52.030;4.690;2022-11-12T11:41:09;16.50;64.20
22360;DHT22;11347;52.030;4.690;2022-11-12T11:51:55;16.60;64.30
22360;DHT22;11347;52.030;4.690;2022-11-12T11:57:20;16.70;64.30
22360;DHT22;11347;52.030;4.690;2022-11-12T12:00:10;16.70;64.30
22360;DHT22;11347;52.030;4.690;2022-11-12T12:05:47;16.70;64.30
22360;DHT22;11347;52.030;4.690;2022-11-12T12:11:29;16.80;64.40
22360;DHT22;11347;52.030;4.690;2022-11-12T12:14:13;16.80;64.40
22360;DHT22;11347;52.030;4.690;2022-11-12T12:16:58;16.80;64.40
22360;DHT22;11347;52.030;4.690;2022-11-12T12:20:41;16.80;64.40
22360;DHT22;11347;52.030;4.690;2022-11-12T12:25:30;16.90;64.50
22360;DHT22;11347;52.030;4.690;2022-11-12T12:27:58;16.90;64.50
22360;DHT22;11347;52.030;4.690;2022-11-12T12:30:25;16.90;64.50
22360;DHT22;11347;52.030;4.690;2022-11-12T12:32:59;16.90;64.50
22360;DHT22;11347;52.030;4.690;2022-11-12T12:35:54;16.90;64.50
22360;DHT22;11347;52.030;4.690;2022-11-12T12:41:15;17.00;64.60
22360;DHT22;11347;52.030;4.690;2022-11-12T12:43:55;17.00;64.60
22360;DHT22;11347;52.030;4.690;2022-11-12T12:46:26;17.00;64.60
22360;DHT22;11347;52.030;4.690;2022-11-12T12:48:53;17.00;64.60
22360;DHT22;11347;52.030;4.690;2022-11-12T12:51:20;17.10;64.70
22360;DHT22;11347;52.030;4.690;2022-11-12T12:53:46;17.00;64.60
22360;DHT22;11347;52.030;4.690;2022-11-12T12:58:45;17.10;64.40
22360;DHT22;11347;52.030;4.690;2022-11-12T13:01:24;17.10;64.40
22360;DHT22;11347;52.030;4.690;2022-11-12T13:04:01;17.10;64.50
22360;DHT22;11347;52.030;4.690;2022-11-12T13:32:56;17.20;64.40
22360;DHT22;11347;52.030;4.690;2022-11-12T13:35:26;17.30;64.50
22360;DHT22;11347;52.030;4.690;2022-11-12T13:40:50;17.30;64.50
22360;DHT22;11347;52.030;4.690;2022-11-12T13:48:48;17.30;64.50
22360;DHT22;11347;52.030;4.690;2022-11-12T13:53:48;17.30;64.40
22360;DHT22;11347;52.030;4.690;2022-11-12T13:56:31;17.30;64.40
22360;DHT22;11347;52.030;4.690;2022-11-12T13:59:19;17.30;64.40
22360;DHT22;11347;52.030;4.690;2022-11-12T14:01:46;17.30;64.40
22360;DHT22;11347;52.030;4.690;2022-11-12T14:04:14;17.30;64.40
22360;DHT22;11347;52.030;4.690;2022-11-12T14:09:25;17.30;64.30
22360;DHT22;11347;52.030;4.690;2022-11-12T14:18:42;17.30;64.20
22360;DHT22;11347;52.030;4.690;2022-11-12T14:20:39;17.30;64.30
22360;DHT22;11347;52.030;4.690;2022-11-12T14:23:13;17.30;64.30
22360;DHT22;11347;52.030;4.690;2022-11-12T14:25:54;17.30;64.30
22360;DHT22;11347;52.030;4.690;2022-11-12T14:30:53;17.30;64.30
22360;DHT22;11347;52.030;4.690;2022-11-12T14:33:21;17.40;64.30
22360;DHT22;11347;52.030;4.690;2022-11-12T14:35:48;17.30;64.10
22360;DHT22;11347;52.030;4.690;2022-11-12T14:40:55;17.30;64.10
22360;DHT22;11347;52.030;4.690;2022-11-12T14:43:41;17.30;64.10
22360;DHT22;11347;52.030;4.690;2022-11-12T14:48:58;17.40;64.10
22360;DHT22;11347;52.030;4.690;2022-11-12T14:51:25;17.30;64.10
22360;DHT22;11347;52.030;4.690;2022-11-12T14:53:55;17.40;64.10
22360;DHT22;11347;52.030;4.690;2022-11-12T14:56:34;17.40;64.10
22360;DHT22;11347;52.030;4.690;2022-11-12T14:59:01;17.40;64.00
22360;DHT22;11347;52.030;4.690;2022-11-12T15:01:34;17.40;64.10
22360;DHT22;11347;52.030;4.690;2022-11-12T15:06:35;17.30;64.00
22360;DHT22;11347;52.030;4.690;2022-11-12T15:09:01;17.40;64.00
22360;DHT22;11347;52.030;4.690;2022-11-12T15:14:00;17.40;64.10
22360;DHT22;11347;52.030;4.690;2022-11-12T15:16:34;17.40;64.10
22360;DHT22;11347;52.030;4.690;2022-11-12T15:19:12;17.30;64.10
22360;DHT22;11347;52.030;4.690;2022-11-12T15:21:51;17.30;64.10
22360;DHT22;11347;52.030;4.690;2022-11-12T15:24:29;17.30;64.00
22360;DHT22;11347;52.030;4.690;2022-11-12T15:26:57;17.30;64.00
22360;DHT22;11347;52.030;4.690;2022-11-12T15:29:33;17.30;64.10
22360;DHT22;11347;52.030;4.690;2022-11-12T15:32:25;17.30;64.10
22360;DHT22;11347;52.030;4.690;2022-11-12T15:34:47;17.30;64.10
22360;DHT22;11347;52.030;4.690;2022-11-12T15:39:50;17.20;64.10
22360;DHT22;11347;52.030;4.690;2022-11-12T15:42:35;17.20;64.10
22360;DHT22;11347;52.030;4.690;2022-11-12T15:45:20;17.20;64.20
22360;DHT22;11347;52.030;4.690;2022-11-12T15:47:46;17.20;64.30
22360;DHT22;11347;52.030;4.690;2022-11-12T15:52:38;17.20;64.40
22360;DHT22;11347;52.030;4.690;2022-11-12T15:55:04;17.20;64.60
22360;DHT22;11347;52.030;4.690;2022-11-12T15:57:31;17.20;64.70
22360;DHT22;11347;52.030;4.690;2022-11-12T16:00:04;17.20;64.60
22360;DHT22;11347;52.030;4.690;2022-11-12T16:02:29;17.10;64.70
22360;DHT22;11347;52.030;4.690;2022-11-12T16:04:56;17.10;64.70
22360;DHT22;11347;52.030;4.690;2022-11-12T16:07:21;17.10;64.70
22360;DHT22;11347;52.030;4.690;2022-11-12T16:09:47;17.10;64.70
22360;DHT22;11347;52.030;4.690;2022-11-12T16:12:12;17.10;64.70
22360;DHT22;11347;52.030;4.690;2022-11-12T16:14:39;17.10;64.70
22360;DHT22;11347;52.030;4.690;2022-11-12T16:17:09;17.10;64.70
22360;DHT22;11347;52.030;4.690;2022-11-12T16:19:35;17.10;64.70
22360;DHT22;11347;52.030;4.690;2022-11-12T16:22:01;17.10;65.10
22360;DHT22;11347;52.030;4.690;2022-11-12T16:24:27;17.00;64.60
22360;DHT22;11347;52.030;4.690;2022-11-12T16:26:52;17.00;64.60
22360;DHT22;11347;52.030;4.690;2022-11-12T16:29:18;17.00;64.60
22360;DHT22;11347;52.030;4.690;2022-11-12T16:31:44;17.00;64.60
22360;DHT22;11347;52.030;4.690;2022-11-12T16:34:10;17.00;64.60
22360;DHT22;11347;52.030;4.690;2022-11-12T16:36:37;17.00;64.60
22360;DHT22;11347;52.030;4.690;2022-11-12T16:39:03;17.00;64.60
22360;DHT22;11347;52.030;4.690;2022-11-12T16:41:28;17.00;64.60
22360;DHT22;11347;52.030;4.690;2022-11-12T16:43:54;16.90;64.50
22360;DHT22;11347;52.030;4.690;2022-11-12T16:46:34;16.90;64.50
22360;DHT22;11347;52.030;4.690;2022-11-12T16:49:00;16.90;64.50
22360;DHT22;11347;52.030;4.690;2022-11-12T16:51:25;16.90;64.50
22360;DHT22;11347;52.030;4.690;2022-11-12T16:53:51;16.90;64.50
22360;DHT22;11347;52.030;4.690;2022-11-12T16:56:21;16.90;64.50
22360;DHT22;11347;52.030;4.690;2022-11-12T16:58:48;16.90;64.50
22360;DHT22;11347;52.030;4.690;2022-11-12T17:03:48;16.80;64.40
22360;DHT22;11347;52.030;4.690;2022-11-12T17:06:14;16.90;64.50
22360;DHT22;11347;52.030;4.690;2022-11-12T17:08:39;16.80;64.40
22360;DHT22;11347;52.030;4.690;2022-11-12T17:11:06;16.80;64.40
22360;DHT22;11347;52.030;4.690;2022-11-12T17:13:31;16.80;64.40
22360;DHT22;11347;52.030;4.690;2022-11-12T17:15:57;16.80;64.40
22360;DHT22;11347;52.030;4.690;2022-11-12T17:18:23;16.80;64.40
22360;DHT22;11347;52.030;4.690;2022-11-12T17:20:48;16.80;64.40
22360;DHT22;11347;52.030;4.690;2022-11-12T17:23:14;16.80;64.40
22360;DHT22;11347;52.030;4.690;2022-11-12T17:25:39;16.80;64.50
22360;DHT22;11347;52.030;4.690;2022-11-12T17:28:05;16.70;64.60
22360;DHT22;11347;52.030;4.690;2022-11-12T17:30:30;16.80;64.60
22360;DHT22;11347;52.030;4.690;2022-11-12T17:32:58;16.70;64.60
22360;DHT22;11347;52.030;4.690;2022-11-12T17:35:23;16.70;64.60
22360;DHT22;11347;52.030;4.690;2022-11-12T17:37:49;16.70;64.60
22360;DHT22;11347;52.030;4.690;2022-11-12T17:40:15;16.70;64.60
22360;DHT22;11347;52.030;4.690;2022-11-12T17:42:41;16.70;64.70
22360;DHT22;11347;52.030;4.690;2022-11-12T17:45:07;16.70;64.70
22360;DHT22;11347;52.030;4.690;2022-11-12T17:47:32;16.70;64.80
22360;DHT22;11347;52.030;4.690;2022-11-12T17:49:58;16.70;64.80
22360;DHT22;11347;52.030;4.690;2022-11-12T17:52:23;16.70;64.90
22360;DHT22;11347;52.030;4.690;2022-11-12T17:54:49;16.70;64.90
22360;DHT22;11347;52.030;4.690;2022-11-12T17:57:14;16.60;64.80
22360;DHT22;11347;52.030;4.690;2022-11-12T17:59:40;16.60;64.80